Time;durP1;ratioP1;P1;durP2;ratioP2;P2;SDS_P1;SDS_P2;PMS_P1;PMS_P2;Temp;Humidity;BMP_temperature;BMP_pressure;BME280_temperature;BME280_humidity;BME280_pressure;Samples;Min_cycle;Max_cycle;Signal;HPM_P1;HPM_P2
2022/08/06 00:02:12;;;;;;;3.70;2.90;;;22.60;91.80;;;;;;4963435;29;20450;-82
2022/08/06 00:04:39;;;;;;;2.87;2.57;;;22.60;91.50;;;;;;4962712;29;20437;-81
2022/08/06 00:07:06;;;;;;;3.00;2.70;;;22.60;91.20;;;;;;4961656;29;20453;-81
2022/08/06 00:09:33;;;;;;;3.33;2.33;;;22.50;90.80;;;;;;4962402;28;20456;-82
2022/08/06 00:12:01;;;;;;;3.20;2.90;;;22.50;90.70;;;;;;4961742;29;20531;-81
2022/08/06 00:14:29;;;;;;;2.90;2.13;;;22.50;90.20;;;;;;4961812;29;20441;-82
2022/08/06 00:16:55;;;;;;;3.87;2.60;;;22.50;90.00;;;;;;4961403;29;20434;-81
2022/08/06 00:19:22;;;;;;;3.47;3.07;;;22.50;90.00;;;;;;4961141;28;20441;-82
2022/08/06 00:21:50;;;;;;;2.90;2.60;;;22.50;90.00;;;;;;4957976;29;20445;-81
2022/08/06 00:24:17;;;;;;;2.57;2.37;;;22.40;89.60;;;;;;4961678;29;20968;-81
2022/08/06 00:26:45;;;;;;;2.90;2.30;;;22.40;88.70;;;;;;4962300;29;20448;-82
2022/08/06 00:29:13;;;;;;;4.80;2.80;;;22.40;88.20;;;;;;4963908;28;20462;-81
2022/08/06 00:31:40;;;;;;;3.13;2.57;;;22.40;88.20;;;;;;4969161;29;20488;-81
2022/08/06 00:34:08;;;;;;;2.67;2.13;;;22.40;87.80;;;;;;4968561;29;20461;-81
2022/08/06 00:36:35;;;;;;;4.13;2.57;;;22.40;87.40;;;;;;4972090;29;20465;-81
2022/08/06 00:39:04;;;;;;;2.50;2.30;;;22.30;87.60;;;;;;4962959;29;20444;-81
2022/08/06 00:41:32;;;;;;;2.80;2.60;;;22.30;87.90;;;;;;4962693;28;20469;-82
2022/08/06 00:43:59;;;;;;;2.77;2.43;;;22.20;87.00;;;;;;4968394;29;20505;-80
2022/08/06 00:46:27;;;;;;;2.30;1.90;;;22.20;87.20;;;;;;4972253;29;20484;-80
2022/08/06 00:48:54;;;;;;;2.77;2.17;;;22.30;87.00;;;;;;4960560;29;20866;-81
2022/08/06 00:51:22;;;;;;;3.47;2.00;;;22.30;86.50;;;;;;4968344;28;20893;-81
2022/08/06 00:53:49;;;;;;;2.77;1.97;;;22.20;86.40;;;;;;4970900;29;20445;-81
2022/08/06 00:56:15;;;;;;;2.40;2.20;;;22.10;86.00;;;;;;4965249;29;20448;-81
2022/08/06 00:58:42;;;;;;;2.90;2.07;;;22.20;85.50;;;;;;4963896;29;20438;-81
2022/08/06 01:01:10;;;;;;;4.87;2.50;;;22.10;85.50;;;;;;4959457;28;21053;-82
2022/08/06 01:03:38;;;;;;;3.43;2.40;;;22.10;85.10;;;;;;4970547;29;20442;-81
2022/08/06 01:06:05;;;;;;;2.30;1.83;;;22.00;85.10;;;;;;4972981;29;20456;-81
2022/08/06 01:08:32;;;;;;;2.30;1.80;;;22.00;84.50;;;;;;4969042;29;20492;-81
2022/08/06 01:10:59;;;;;;;7.43;2.30;;;22.10;83.80;;;;;;4958297;28;20539;-82
2022/08/06 01:13:25;;;;;;;3.83;2.20;;;22.00;83.30;;;;;;4956065;29;20485;-81
2022/08/06 01:15:59;;;;;;;2.80;2.27;;;22.00;83.20;;;;;;4953581;29;20509;-81
2022/08/06 01:18:31;;;;;;;3.37;1.97;;;22.00;82.90;;;;;;4955866;29;20496;-81
2022/08/06 01:21:14;;;;;;;2.87;2.50;;;22.00;82.70;;;;;;4955281;28;20485;-81
2022/08/06 01:23:56;;;;;;;2.80;2.47;;;22.00;82.40;;;;;;4955233;29;20942;-81
2022/08/06 01:26:35;;;;;;;3.20;1.80;;;21.90;82.30;;;;;;4955330;29;20441;-81
2022/08/06 01:29:06;;;;;;;2.20;1.90;;;21.90;82.10;;;;;;4957909;29;20954;-82
2022/08/06 01:31:37;;;;;;;3.03;2.50;;;21.90;82.10;;;;;;4960121;28;20508;-82
2022/08/06 01:34:10;;;;;;;1.70;1.53;;;21.90;82.30;;;;;;4960556;29;20446;-82
2022/08/06 01:36:41;;;;;;;4.57;1.97;;;21.90;82.00;;;;;;4960244;29;20445;-82
2022/08/06 01:39:12;;;;;;;2.60;2.20;;;21.90;81.70;;;;;;4963014;29;20472;-81
2022/08/06 01:41:44;;;;;;;2.90;1.60;;;21.90;81.60;;;;;;4958998;29;20448;-81
2022/08/06 01:44:15;;;;;;;2.80;1.87;;;21.90;81.60;;;;;;4965674;29;20446;-82
2022/08/06 01:46:47;;;;;;;3.87;1.93;;;21.90;81.40;;;;;;4968240;29;20442;-82
2022/08/06 01:49:16;;;;;;;2.57;1.70;;;21.80;81.50;;;;;;4961814;28;20449;-81
2022/08/06 01:51:46;;;;;;;3.83;2.00;;;21.80;81.50;;;;;;4958396;29;20494;-82
2022/08/06 01:54:15;;;;;;;3.30;2.03;;;21.70;81.50;;;;;;4958157;29;20445;-81
2022/08/06 01:56:45;;;;;;;6.57;2.07;;;21.70;81.00;;;;;;4958741;29;20946;-81
2022/08/06 01:59:17;;;;;;;2.90;2.13;;;21.60;81.00;;;;;;4961980;28;20449;-82
2022/08/06 02:01:47;;;;;;;2.33;1.83;;;21.50;81.60;;;;;;4959991;29;20816;-81
2022/08/06 02:04:16;;;;;;;2.23;1.90;;;21.50;81.50;;;;;;4958354;29;21033;-82
2022/08/06 02:06:46;;;;;;;4.77;2.07;;;21.50;81.40;;;;;;4957971;29;20444;-82
2022/08/06 02:09:17;;;;;;;2.83;2.07;;;21.40;81.70;;;;;;4957778;28;20815;-81
2022/08/06 02:11:47;;;;;;;3.50;2.03;;;21.40;81.90;;;;;;4957542;29;20476;-82
2022/08/06 02:14:16;;;;;;;2.40;1.90;;;21.40;81.30;;;;;;4957636;29;20946;-81
2022/08/06 02:16:43;;;;;;;2.60;2.07;;;21.40;81.40;;;;;;4957032;29;20942;-82
2022/08/06 02:19:14;;;;;;;2.07;1.40;;;21.30;81.60;;;;;;4957481;29;20446;-82
2022/08/06 02:21:43;;;;;;;2.20;1.53;;;21.30;82.10;;;;;;4964520;29;20453;-81
2022/08/06 02:24:11;;;;;;;2.30;1.50;;;21.30;82.20;;;;;;4966085;29;20441;-82
2022/08/06 02:26:40;;;;;;;4.10;1.77;;;21.30;82.00;;;;;;4958995;29;20444;-82
2022/08/06 02:29:12;;;;;;;2.70;2.30;;;21.30;81.80;;;;;;4957616;29;20496;-82
2022/08/06 02:31:40;;;;;;;3.40;1.70;;;21.20;81.90;;;;;;4953765;29;20481;-82
2022/08/06 02:34:06;;;;;;;3.33;1.70;;;21.20;82.60;;;;;;4952584;28;20504;-81
2022/08/06 02:36:39;;;;;;;2.00;1.80;;;21.20;82.70;;;;;;4953811;29;20453;-81
2022/08/06 02:39:11;;;;;;;4.77;1.40;;;21.20;82.80;;;;;;4955524;29;20460;-81
2022/08/06 02:41:43;;;;;;;2.10;1.90;;;21.10;82.60;;;;;;4953383;29;20441;-81
2022/08/06 02:44:15;;;;;;;3.17;1.80;;;21.10;82.60;;;;;;4958055;29;20516;-81
2022/08/06 02:46:49;;;;;;;5.80;1.97;;;21.00;82.90;;;;;;4957233;29;20449;-81
2022/08/06 02:49:20;;;;;;;4.07;1.70;;;21.10;82.80;;;;;;4957935;28;20930;-81
2022/08/06 02:51:54;;;;;;;3.00;2.40;;;21.00;83.00;;;;;;4957369;29;20481;-81
2022/08/06 02:54:25;;;;;;;3.77;1.73;;;21.00;83.20;;;;;;4956215;29;20446;-81
2022/08/06 02:56:59;;;;;;;2.37;2.00;;;20.90;83.20;;;;;;4956166;29;20442;-81
2022/08/06 02:59:31;;;;;;;5.00;1.80;;;21.00;83.50;;;;;;4956247;28;20480;-81
2022/08/06 03:02:02;;;;;;;3.60;2.10;;;21.00;83.90;;;;;;4961358;29;20450;-80
2022/08/06 03:04:30;;;;;;;4.77;2.10;;;21.00;83.70;;;;;;4976039;28;20526;-81
2022/08/06 03:06:59;;;;;;;3.23;1.70;;;21.00;83.50;;;;;;4971792;29;20457;-84
2022/08/06 03:09:26;;;;;;;4.33;2.53;;;21.00;83.60;;;;;;4967791;28;20438;-84
2022/08/06 03:11:54;;;;;;;3.07;2.30;;;21.00;83.70;;;;;;4961715;29;20481;-84
2022/08/06 03:14:23;;;;;;;2.83;2.10;;;21.00;84.40;;;;;;4959231;29;20448;-84
2022/08/06 03:16:50;;;;;;;2.30;2.07;;;21.00;84.40;;;;;;4958979;29;20468;-84
2022/08/06 03:19:20;;;;;;;2.87;2.00;;;21.10;83.90;;;;;;4959464;28;20814;-83
2022/08/06 03:21:49;;;;;;;4.90;2.17;;;21.10;83.80;;;;;;4958821;29;20449;-84
2022/08/06 03:24:17;;;;;;;2.80;2.13;;;21.00;84.10;;;;;;4966969;28;20458;-84
2022/08/06 03:26:44;;;;;;;2.27;1.70;;;21.00;84.20;;;;;;4959987;29;20446;-83
2022/08/06 03:29:12;;;;;;;4.70;1.87;;;21.00;83.90;;;;;;4962698;28;20460;-83
2022/08/06 03:31:40;;;;;;;2.10;1.90;;;21.00;83.80;;;;;;4973571;29;20481;-84
2022/08/06 03:34:08;;;;;;;1.90;1.70;;;21.00;83.90;;;;;;4966101;29;20615;-84
2022/08/06 03:36:37;;;;;;;2.40;2.03;;;20.90;83.90;;;;;;4962893;29;20438;-84
2022/08/06 03:39:06;;;;;;;2.53;1.60;;;20.90;84.00;;;;;;4966487;29;20453;-84
2022/08/06 03:41:36;;;;;;;3.60;2.37;;;20.90;84.20;;;;;;4964450;28;20453;-84
2022/08/06 03:44:03;;;;;;;2.13;1.93;;;20.90;84.20;;;;;;4962471;29;20445;-84
2022/08/06 03:46:34;;;;;;;2.77;2.00;;;20.90;84.60;;;;;;4963216;29;20437;-84
2022/08/06 03:49:04;;;;;;;2.77;1.90;;;20.90;84.90;;;;;;4962822;29;20477;-84
2022/08/06 03:51:33;;;;;;;2.40;2.20;;;20.90;84.80;;;;;;4964012;28;20548;-84
2022/08/06 03:54:02;;;;;;;2.77;2.10;;;20.90;84.90;;;;;;4962244;29;20528;-84
2022/08/06 03:56:30;;;;;;;3.60;2.20;;;20.90;84.90;;;;;;4961986;29;20437;-84
2022/08/06 03:59:01;;;;;;;3.00;2.20;;;20.80;85.10;;;;;;4961900;29;20453;-84
2022/08/06 04:01:32;;;;;;;3.47;2.00;;;20.80;85.20;;;;;;4962898;28;20465;-84
2022/08/06 04:03:59;;;;;;;2.77;1.90;;;20.80;85.40;;;;;;4964986;29;20449;-84
2022/08/06 04:06:28;;;;;;;3.03;2.00;;;20.70;85.50;;;;;;4962844;29;20493;-83
2022/08/06 04:08:55;;;;;;;3.20;1.80;;;20.70;86.20;;;;;;4962742;29;20455;-84
2022/08/06 04:11:25;;;;;;;5.50;2.63;;;20.60;86.40;;;;;;4960449;29;20457;-84
2022/08/06 04:13:52;;;;;;;5.00;2.10;;;20.70;86.40;;;;;;4969127;29;20449;-84
2022/08/06 04:16:20;;;;;;;3.30;1.93;;;20.60;86.30;;;;;;4965155;29;20460;-84
2022/08/06 04:18:48;;;;;;;3.13;1.93;;;20.70;86.60;;;;;;4965447;29;22082;-83
2022/08/06 04:21:19;;;;;;;2.70;1.93;;;20.70;86.60;;;;;;4973167;28;20477;-84
2022/08/06 04:23:46;;;;;;;3.33;2.33;;;20.70;86.60;;;;;;4966427;29;20441;-85
2022/08/06 04:26:17;;;;;;;2.33;2.10;;;20.70;86.70;;;;;;4962085;29;20461;-84
2022/08/06 04:28:48;;;;;;;4.53;2.80;;;20.70;87.00;;;;;;4964200;29;20521;-83
2022/08/06 04:31:15;;;;;;;4.03;2.13;;;20.60;87.20;;;;;;4964898;28;20469;-83
2022/08/06 04:33:42;;;;;;;4.00;2.13;;;20.60;86.80;;;;;;4964238;29;20446;-83
2022/08/06 04:36:09;;;;;;;5.30;2.27;;;20.60;87.60;;;;;;4960942;28;20938;-83
2022/08/06 04:38:37;;;;;;;3.20;2.10;;;20.70;86.80;;;;;;4962205;29;20453;-83
2022/08/06 04:41:04;;;;;;;3.40;2.07;;;20.70;87.00;;;;;;4962002;28;20465;-84
2022/08/06 04:43:32;;;;;;;2.80;2.50;;;20.70;87.00;;;;;;4961959;28;20528;-84
2022/08/06 04:46:01;;;;;;;2.40;2.00;;;20.70;86.90;;;;;;4961022;28;20450;-84
2022/08/06 04:48:28;;;;;;;3.70;2.30;;;20.80;86.90;;;;;;4961815;29;20453;-84
2022/08/06 04:50:55;;;;;;;3.03;2.07;;;20.80;86.70;;;;;;4961165;28;20817;-84
2022/08/06 04:53:23;;;;;;;2.33;2.03;;;20.80;86.70;;;;;;4959471;29;20484;-83
2022/08/06 04:55:50;;;;;;;3.80;2.13;;;20.80;86.90;;;;;;4963399;29;20814;-84
2022/08/06 04:58:17;;;;;;;3.57;2.23;;;20.80;87.00;;;;;;4958211;29;20537;-84
2022/08/06 05:00:46;;;;;;;3.97;2.30;;;20.80;87.20;;;;;;4975958;28;20530;-83
2022/08/06 05:03:14;;;;;;;2.47;2.17;;;20.90;87.40;;;;;;4976734;28;20458;-84
2022/08/06 05:05:47;;;;;;;3.17;2.30;;;20.90;87.30;;;;;;4973336;29;20465;-83
2022/08/06 05:08:14;;;;;;;3.27;2.27;;;20.90;88.20;;;;;;4963949;29;20927;-83
2022/08/06 05:10:47;;;;;;;3.37;2.57;;;20.80;87.00;;;;;;4959197;28;20564;-84
2022/08/06 05:13:16;;;;;;;3.47;2.17;;;20.80;87.70;;;;;;4960007;29;20520;-83
2022/08/06 05:15:46;;;;;;;4.53;2.30;;;20.80;87.60;;;;;;4960658;29;20452;-83
2022/08/06 05:18:18;;;;;;;3.00;2.07;;;20.90;87.60;;;;;;4969722;29;20446;-84
2022/08/06 05:20:50;;;;;;;2.50;2.30;;;20.90;87.50;;;;;;4968001;28;20465;-84
2022/08/06 05:23:21;;;;;;;3.73;2.10;;;20.90;87.40;;;;;;4964186;29;20450;-84
2022/08/06 05:25:49;;;;;;;4.17;2.67;;;21.00;87.20;;;;;;4960412;29;20452;-84
2022/08/06 05:28:15;;;;;;;4.43;2.40;;;21.00;87.30;;;;;;4960653;29;20452;-83
2022/08/06 05:30:44;;;;;;;3.43;2.33;;;21.00;87.60;;;;;;4970643;28;20516;-84
2022/08/06 05:33:10;;;;;;;10.13;2.53;;;20.90;87.80;;;;;;4965956;29;20477;-83
2022/08/06 05:35:38;;;;;;;4.80;2.27;;;20.90;87.80;;;;;;4961264;29;20501;-84
2022/08/06 05:38:05;;;;;;;3.30;2.73;;;21.00;87.60;;;;;;4961485;29;20441;-84
2022/08/06 05:40:35;;;;;;;5.80;2.70;;;20.90;87.40;;;;;;4960438;28;20468;-84
2022/08/06 05:43:01;;;;;;;3.27;2.97;;;20.90;88.00;;;;;;4961011;29;20477;-83
2022/08/06 05:45:28;;;;;;;2.27;1.93;;;20.80;88.00;;;;;;4961049;28;20497;-83
2022/08/06 05:47:58;;;;;;;4.57;3.07;;;20.90;88.90;;;;;;4961217;29;20441;-84
2022/08/06 05:50:34;;;;;;;2.90;2.07;;;20.90;88.40;;;;;;4959789;28;20472;-83
2022/08/06 05:53:05;;;;;;;4.90;2.43;;;20.80;88.70;;;;;;4961430;29;20505;-84
2022/08/06 05:55:39;;;;;;;3.83;2.53;;;20.80;89.00;;;;;;4961156;29;20969;-84
2022/08/06 05:58:11;;;;;;;2.07;1.87;;;20.90;90.00;;;;;;4962592;29;20488;-84
2022/08/06 06:00:39;;;;;;;3.93;2.10;;;21.00;88.60;;;;;;4959716;28;20496;-84
2022/08/06 06:03:10;;;;;;;4.27;2.20;;;21.20;88.30;;;;;;4961206;29;20438;-83
2022/08/06 06:05:38;;;;;;;2.47;2.27;;;21.40;87.00;;;;;;4961615;29;20453;-84
2022/08/06 06:08:08;;;;;;;3.17;2.13;;;21.80;86.60;;;;;;4969868;29;20449;-83
2022/08/06 06:10:36;;;;;;;3.40;2.13;;;22.00;85.30;;;;;;4971839;28;20573;-84
2022/08/06 06:13:04;;;;;;;3.80;2.30;;;22.30;84.30;;;;;;4967202;28;20473;-84
2022/08/06 06:15:34;;;;;;;3.80;2.63;;;22.70;83.10;;;;;;4960330;29;20446;-84
2022/08/06 06:18:09;;;;;;;3.60;2.80;;;22.90;81.30;;;;;;4960396;29;20556;-84
2022/08/06 06:20:50;;;;;;;3.40;2.20;;;23.00;79.50;;;;;;4960127;28;20564;-84
2022/08/06 06:23:24;;;;;;;4.13;2.40;;;23.10;79.80;;;;;;4958205;29;20445;-83
2022/08/06 06:26:00;;;;;;;5.60;2.40;;;23.30;78.40;;;;;;4962556;29;20861;-84
2022/08/06 06:28:34;;;;;;;2.83;2.63;;;23.50;77.80;;;;;;4966477;29;20492;-84
2022/08/06 06:31:08;;;;;;;13.03;3.40;;;23.70;77.10;;;;;;4961691;28;20469;-84
2022/08/06 06:33:40;;;;;;;2.80;2.50;;;23.60;76.10;;;;;;4959874;29;20481;-85
2022/08/06 06:36:17;;;;;;;5.33;2.33;;;23.90;75.70;;;;;;4956554;29;20453;-84
2022/08/06 06:38:53;;;;;;;2.33;2.03;;;24.30;74.30;;;;;;4957746;29;20444;-84
2022/08/06 06:41:25;;;;;;;3.63;2.10;;;24.70;73.30;;;;;;4955857;28;20461;-84
2022/08/06 06:44:20;;;;;;;2.83;2.10;;;25.40;70.80;;;;;;4973449;28;20413;-83
2022/08/06 06:46:54;;;;;;;4.80;2.57;;;26.00;67.60;;;;;;4968476;28;20453;-85
2022/08/06 06:49:27;;;;;;;3.53;2.13;;;26.30;65.70;;;;;;4961655;28;20914;-84
2022/08/06 06:51:59;;;;;;;5.33;2.40;;;26.10;65.40;;;;;;4959254;29;20448;-84
2022/08/06 06:54:34;;;;;;;3.37;2.20;;;26.30;65.00;;;;;;4957032;29;20841;-84
2022/08/06 06:57:02;;;;;;;2.87;2.00;;;26.60;63.90;;;;;;4959397;29;20445;-84
2022/08/06 06:59:34;;;;;;;2.50;2.20;;;26.50;62.90;;;;;;4975732;28;20436;-84
2022/08/06 07:02:02;;;;;;;2.90;2.10;;;26.30;63.40;;;;;;4975899;29;20445;-84
2022/08/06 07:04:30;;;;;;;2.93;1.80;;;26.40;64.40;;;;;;4960974;29;20542;-84
2022/08/06 07:06:59;;;;;;;2.10;1.90;;;27.00;61.90;;;;;;4957942;29;20518;-84
2022/08/06 07:09:31;;;;;;;3.20;2.90;;;27.30;59.90;;;;;;4957133;28;20811;-84
2022/08/06 07:11:59;;;;;;;6.40;2.67;;;27.40;59.20;;;;;;4958335;29;20442;-85
2022/08/06 07:14:29;;;;;;;3.57;2.40;;;27.50;59.10;;;;;;4957943;29;20492;-84
2022/08/06 07:16:58;;;;;;;2.47;2.27;;;27.30;59.10;;;;;;4957897;29;20528;-84
2022/08/06 07:19:26;;;;;;;3.50;2.27;;;27.20;59.90;;;;;;4958008;28;20452;-84
2022/08/06 07:21:53;;;;;;;4.43;3.00;;;27.30;59.30;;;;;;4964002;29;20441;-85
2022/08/06 07:24:23;;;;;;;4.60;2.50;;;27.40;58.50;;;;;;4963898;29;20447;-85
2022/08/06 07:26:54;;;;;;;2.40;1.70;;;26.90;59.50;;;;;;4961057;29;20453;-84
2022/08/06 07:29:21;;;;;;;3.40;2.10;;;26.90;59.60;;;;;;4959326;28;20454;-85
2022/08/06 07:31:48;;;;;;;2.93;2.13;;;27.10;59.30;;;;;;4957939;29;20818;-85
2022/08/06 07:34:16;;;;;;;3.30;2.30;;;27.40;58.80;;;;;;4957208;29;20871;-85
2022/08/06 07:36:47;;;;;;;2.77;2.13;;;27.60;58.20;;;;;;4954481;29;20447;-85
2022/08/06 07:39:22;;;;;;;3.47;2.37;;;28.30;57.70;;;;;;4956699;28;20449;-85
2022/08/06 07:41:51;;;;;;;2.47;2.20;;;28.60;56.40;;;;;;4955868;29;20516;-86
2022/08/06 07:44:20;;;;;;;1.90;1.80;;;29.30;55.20;;;;;;4970569;29;20447;-87
2022/08/06 07:46:50;;;;;;;2.03;1.83;;;29.80;54.00;;;;;;4971712;28;20443;-85
2022/08/06 07:49:20;;;;;;;2.30;1.97;;;30.40;52.90;;;;;;4968809;28;20460;-83
2022/08/06 07:51:50;;;;;;;3.20;2.17;;;30.80;51.30;;;;;;4960531;29;20447;-83
2022/08/06 07:54:19;;;;;;;3.90;2.90;;;28.70;53.30;;;;;;4957805;29;20496;-86
2022/08/06 07:56:46;;;;;;;3.50;2.17;;;28.10;55.00;;;;;;4966691;29;20473;-83
2022/08/06 07:59:18;;;;;;;2.47;1.97;;;28.50;54.90;;;;;;4971954;28;20480;-88
2022/08/06 08:01:45;;;;;;;2.77;1.90;;;28.50;55.30;;;;;;4954241;29;20454;-83
2022/08/06 08:07:02;;;;;;;4.60;2.87;;;27.40;55.80;;;;;;4967745;29;20434;-82
2022/08/06 08:09:30;;;;;;;6.87;2.70;;;26.30;57.90;;;;;;4962899;28;20528;-85
2022/08/06 08:11:58;;;;;;;3.23;2.40;;;25.60;59.00;;;;;;4958076;28;20446;-86
2022/08/06 08:14:27;;;;;;;3.70;2.23;;;25.30;60.50;;;;;;4955872;29;20536;-87
2022/08/06 08:16:54;;;;;;;5.60;3.00;;;25.10;61.90;;;;;;4955884;28;20450;-86
2022/08/06 08:19:30;;;;;;;4.30;3.00;;;24.90;62.10;;;;;;4956521;28;20823;-87
2022/08/06 08:21:59;;;;;;;3.50;2.40;;;25.10;62.50;;;;;;4957377;29;20452;-88
2022/08/06 08:24:28;;;;;;;2.10;1.90;;;26.30;59.50;;;;;;4957457;29;20474;-87
2022/08/06 08:26:55;;;;;;;2.80;2.50;;;26.50;58.40;;;;;;4954654;29;20450;-88
2022/08/06 08:29:22;;;;;;;2.60;2.40;;;25.90;59.20;;;;;;4957468;28;20445;-89
2022/08/06 08:31:54;;;;;;;6.17;2.80;;;26.50;59.90;;;;;;4957186;29;20453;-89
2022/08/06 08:34:21;;;;;;;3.97;2.30;;;28.30;56.60;;;;;;4957978;29;20500;-89
2022/08/06 08:36:48;;;;;;;2.70;2.30;;;29.20;53.20;;;;;;4958819;29;20456;-89
2022/08/06 08:39:15;;;;;;;4.10;2.60;;;28.50;52.90;;;;;;4961616;28;20453;-89
2022/08/06 08:41:47;;;;;;;4.03;2.33;;;27.90;54.40;;;;;;4961178;29;20946;-88
2022/08/06 08:44:14;;;;;;;2.70;2.37;;;26.90;55.70;;;;;;4973600;28;20430;-88
2022/08/06 08:46:43;;;;;;;3.23;2.57;;;26.70;57.00;;;;;;4976765;28;20449;-89
2022/08/06 08:49:19;;;;;;;2.57;2.37;;;27.40;56.30;;;;;;4975383;28;20482;-89
2022/08/06 08:51:48;;;;;;;3.73;2.37;;;27.00;55.70;;;;;;4977384;28;20445;-88
2022/08/06 08:54:18;;;;;;;3.27;2.40;;;26.30;57.40;;;;;;4973169;29;20500;-88
2022/08/06 08:56:46;;;;;;;4.70;3.00;;;25.50;59.20;;;;;;4979180;28;20430;-88
2022/08/06 08:59:17;;;;;;;3.50;2.63;;;26.20;59.10;;;;;;4979334;28;20445;-89
2022/08/06 09:01:44;;;;;;;3.70;2.50;;;26.40;57.90;;;;;;4956426;28;20450;-89
2022/08/06 09:04:13;;;;;;;2.90;2.53;;;25.40;59.70;;;;;;4973061;28;20446;-89
2022/08/06 09:06:40;;;;;;;3.33;2.70;;;26.00;60.70;;;;;;4972320;29;20442;-89
2022/08/06 09:09:07;;;;;;;2.53;2.27;;;28.30;55.70;;;;;;4975553;28;20850;-90
2022/08/06 09:11:36;;;;;;;3.97;2.27;;;30.90;51.80;;;;;;4965775;28;20466;-90
2022/08/06 09:14:04;;;;;;;2.70;2.17;;;32.20;47.00;;;;;;4959372;29;20539;-90
2022/08/06 09:16:32;;;;;;;3.03;2.10;;;30.90;47.00;;;;;;4956529;29;20461;-90
2022/08/06 09:18:59;;;;;;;4.30;2.30;;;32.00;46.60;;;;;;4960653;29;20467;-90
2022/08/06 09:21:29;;;;;;;2.70;2.40;;;32.80;44.80;;;;;;4972620;28;20457;-91
2022/08/06 09:23:55;;;;;;;3.77;2.50;;;31.70;45.00;;;;;;4959849;29;21131;-90
2022/08/06 09:26:22;;;;;;;2.13;1.80;;;31.00;46.40;;;;;;4958410;29;20450;-91
2022/08/06 09:28:49;;;;;;;2.70;1.63;;;30.90;46.70;;;;;;4959480;29;20474;-90
2022/08/06 09:31:18;;;;;;;3.33;2.43;;;30.90;46.20;;;;;;4968176;28;20454;-91
2022/08/06 09:33:54;;;;;;;4.90;2.47;;;29.70;48.50;;;;;;4965308;28;20485;-90
2022/08/06 09:36:21;;;;;;;4.43;2.40;;;28.90;49.70;;;;;;4957320;29;20462;-90
2022/08/06 09:38:51;;;;;;;5.00;2.37;;;28.50;51.00;;;;;;4961018;29;20495;-90
2022/08/06 09:41:19;;;;;;;2.20;2.00;;;28.10;51.00;;;;;;4962519;28;20484;-91
2022/08/06 09:43:48;;;;;;;4.33;3.93;;;28.00;51.10;;;;;;4960365;29;20438;-91
2022/08/06 09:46:15;;;;;;;2.50;2.00;;;27.90;51.60;;;;;;4958672;29;20433;-91
2022/08/06 09:48:58;;;;;;;3.83;2.73;;;27.70;51.40;;;;;;4959232;28;20442;-92
2022/08/06 09:51:26;;;;;;;2.80;2.30;;;27.80;51.50;;;;;;4960136;28;20469;-91
2022/08/06 09:53:55;;;;;;;3.20;2.50;;;27.60;51.30;;;;;;4951876;29;20477;-92
2022/08/06 09:56:22;;;;;;;2.53;2.10;;;27.60;51.80;;;;;;4955852;29;20471;-91
2022/08/06 09:58:50;;;;;;;2.60;2.40;;;27.50;51.50;;;;;;4956347;28;20451;-92
2022/08/06 10:01:20;;;;;;;3.47;2.37;;;27.70;52.10;;;;;;4955851;28;20481;-91
2022/08/06 10:03:47;;;;;;;9.17;2.60;;;28.10;51.30;;;;;;4966552;28;20450;-91
2022/08/06 10:06:16;;;;;;;4.40;2.50;;;28.40;50.60;;;;;;4975071;29;20462;-91
2022/08/06 10:08:44;;;;;;;3.67;2.40;;;28.30;50.50;;;;;;4958672;29;20496;-91
2022/08/06 10:11:12;;;;;;;2.53;2.23;;;29.20;50.30;;;;;;4961143;28;20525;-91
2022/08/06 10:13:40;;;;;;;2.33;1.93;;;31.20;47.10;;;;;;4969486;29;20499;-87
2022/08/06 10:16:18;;;;;;;4.00;2.63;;;32.00;44.70;;;;;;4957882;28;20449;-89
2022/08/06 10:18:47;;;;;;;2.90;1.90;;;31.30;44.60;;;;;;4953298;29;20460;-88
2022/08/06 10:21:16;;;;;;;2.50;1.80;;;30.50;45.70;;;;;;4954331;28;20472;-89
2022/08/06 10:23:45;;;;;;;2.63;2.03;;;30.30;46.50;;;;;;4952570;29;20940;-88
2022/08/06 10:26:14;;;;;;;3.07;2.53;;;30.90;46.40;;;;;;4952139;29;20952;-88
2022/08/06 10:28:44;;;;;;;3.80;1.87;;;30.90;45.00;;;;;;4964168;29;20456;-89
2022/08/06 10:31:13;;;;;;;2.57;2.30;;;30.70;44.80;;;;;;4961584;28;20467;-88
2022/08/06 10:33:45;;;;;;;3.27;1.97;;;32.80;42.70;;;;;;4955213;28;20482;-87
2022/08/06 10:36:15;;;;;;;4.93;2.07;;;34.90;39.70;;;;;;4963229;28;20442;-88
2022/08/06 10:38:45;;;;;;;2.17;1.93;;;37.80;37.00;;;;;;4981288;28;20439;-89
2022/08/06 10:41:14;;;;;;;2.63;1.90;;;39.10;33.10;;;;;;4968283;28;20500;-87
2022/08/06 10:43:42;;;;;;;2.43;1.80;;;38.20;33.10;;;;;;4961696;29;20471;-87
2022/08/06 10:46:12;;;;;;;3.50;2.00;;;35.30;35.40;;;;;;4957190;29;20510;-87
2022/08/06 10:48:41;;;;;;;3.63;2.43;;;33.80;37.70;;;;;;4957354;29;20461;-87
2022/08/06 10:51:11;;;;;;;2.23;1.90;;;32.80;39.70;;;;;;4965036;28;20473;-87
2022/08/06 10:53:40;;;;;;;3.87;2.10;;;32.40;40.20;;;;;;4982521;28;20471;-89
2022/08/06 10:56:09;;;;;;;5.13;2.00;;;31.80;40.80;;;;;;4979810;28;20425;-87
2022/08/06 10:58:38;;;;;;;2.23;2.00;;;32.50;39.50;;;;;;4975809;29;20443;-89
2022/08/06 11:01:12;;;;;;;4.07;2.00;;;33.30;38.30;;;;;;4964627;28;20472;-89
2022/08/06 11:03:51;;;;;;;4.30;2.57;;;32.90;38.60;;;;;;4967133;29;20440;-88
2022/08/06 11:06:37;;;;;;;3.00;1.93;;;32.00;39.30;;;;;;4960795;29;20455;-89
2022/08/06 11:09:21;;;;;;;5.03;2.20;;;31.70;40.40;;;;;;4971057;29;20454;-87
2022/08/06 11:12:05;;;;;;;3.60;2.40;;;32.50;40.00;;;;;;4978687;28;20438;-88
2022/08/06 11:14:36;;;;;;;3.30;2.53;;;33.10;38.50;;;;;;4982178;28;20465;-89
2022/08/06 11:17:03;;;;;;;2.93;1.97;;;33.50;38.20;;;;;;4968521;29;20973;-88
2022/08/06 11:19:41;;;;;;;3.13;2.23;;;33.00;38.40;;;;;;4961732;28;20538;-89
2022/08/06 11:22:08;;;;;;;4.70;2.07;;;32.10;39.70;;;;;;4966509;28;20796;-88
2022/08/06 11:24:49;;;;;;;2.93;2.67;;;31.20;41.30;;;;;;4966397;29;20443;-89
2022/08/06 11:27:50;;;;;;;4.00;2.10;;;30.30;42.40;;;;;;4960635;29;20449;-88
2022/08/06 11:30:19;;;;;;;11.20;7.90;;;30.20;43.30;;;;;;4958347;28;20468;-88
2022/08/06 11:32:48;;;;;;;4.50;2.57;;;30.30;43.50;;;;;;4961649;28;20439;-88
2022/08/06 11:35:43;;;;;;;4.13;2.20;;;29.80;43.50;;;;;;4961134;29;20490;-88
2022/08/06 11:38:12;;;;;;;3.90;2.40;;;29.90;44.30;;;;;;4958600;29;20444;-86
2022/08/06 11:41:00;;;;;;;3.20;2.70;;;29.40;43.90;;;;;;4970337;28;20468;-88
2022/08/06 11:43:50;;;;;;;2.73;1.90;;;29.00;45.50;;;;;;4960273;28;20992;-89
2022/08/06 11:46:29;;;;;;;2.50;2.20;;;30.50;43.40;;;;;;4962611;29;20804;-87
2022/08/06 11:49:21;;;;;;;4.30;2.50;;;31.50;41.70;;;;;;4978122;29;20435;-89
2022/08/06 11:51:53;;;;;;;2.40;2.20;;;31.70;41.00;;;;;;4965735;29;20452;-90
2022/08/06 11:54:21;;;;;;;2.60;2.40;;;31.90;40.80;;;;;;4958746;29;20585;-89
2022/08/06 11:57:27;;;;;;;2.40;2.20;;;32.90;39.40;;;;;;4958367;29;20450;-87
2022/08/06 12:00:19;;;;;;;2.10;1.80;;;33.20;38.20;;;;;;4948505;28;20469;-87
2022/08/06 12:02:57;;;;;;;2.83;2.17;;;32.80;38.80;;;;;;4939847;28;20457;-87
2022/08/06 12:05:41;;;;;;;4.03;1.97;;;33.80;37.90;;;;;;4976031;28;20457;-88
2022/08/06 12:08:26;;;;;;;3.10;2.00;;;36.10;35.20;;;;;;4978935;28;20443;-89
2022/08/06 12:11:22;;;;;;;2.33;2.07;;;38.70;32.30;;;;;;4958734;28;20483;-89
2022/08/06 12:13:49;;;;;;;2.10;1.83;;;39.60;30.10;;;;;;4957396;29;20511;-89
2022/08/06 12:16:30;;;;;;;2.47;1.90;;;39.10;30.00;;;;;;4956391;29;20455;-89
2022/08/06 12:18:59;;;;;;;2.27;1.80;;;37.10;32.00;;;;;;4956583;29;20464;-87
2022/08/06 12:21:25;;;;;;;4.30;2.00;;;36.00;33.50;;;;;;4954386;29;21049;-87
2022/08/06 12:23:53;;;;;;;2.33;2.13;;;33.60;35.50;;;;;;4959534;29;20447;-87
2022/08/06 12:26:21;;;;;;;2.90;2.30;;;32.50;38.00;;;;;;4958590;29;20841;-88
2022/08/06 12:28:48;;;;;;;4.50;2.20;;;31.20;39.20;;;;;;4960073;29;20473;-88
2022/08/06 12:31:29;;;;;;;3.40;2.60;;;30.30;41.30;;;;;;4956159;28;20482;-89
2022/08/06 12:33:56;;;;;;;2.17;1.97;;;31.90;41.10;;;;;;4953842;29;20448;-88
2022/08/06 12:36:28;;;;;;;2.70;2.10;;;35.00;36.60;;;;;;4987785;23;20499;-85
2022/08/06 12:38:55;;;;;;;2.83;2.53;;;36.50;33.30;;;;;;4992923;28;20551;-84
2022/08/06 12:41:22;;;;;;;3.77;2.20;;;35.70;33.60;;;;;;5005984;28;20441;-85
2022/08/06 12:43:48;;;;;;;2.90;2.30;;;35.30;34.40;;;;;;4999282;28;21013;-84
2022/08/06 12:46:15;;;;;;;2.20;1.80;;;36.10;32.90;;;;;;4997961;28;20446;-85
2022/08/06 12:48:47;;;;;;;2.10;1.90;;;37.00;31.70;;;;;;5001927;28;20450;-84
2022/08/06 12:51:14;;;;;;;2.87;2.20;;;38.20;30.60;;;;;;5009768;28;20449;-84
2022/08/06 12:53:49;;;;;;;6.63;1.83;;;39.40;29.40;;;;;;5000113;28;20831;-85
2022/08/06 12:56:16;;;;;;;2.20;1.93;;;38.40;29.00;;;;;;4999234;28;20449;-85
2022/08/06 12:58:45;;;;;;;2.03;1.70;;;39.90;28.90;;;;;;5009866;28;20446;-85
2022/08/06 13:01:15;;;;;;;2.60;1.90;;;39.90;27.70;;;;;;5012536;28;20446;-84
2022/08/06 13:03:44;;;;;;;2.10;1.90;;;40.10;27.60;;;;;;5005732;28;20478;-84
2022/08/06 13:06:13;;;;;;;2.40;1.70;;;40.30;27.70;;;;;;4999303;28;20928;-86